»·PEaware :: TEXAN24 KRND-KRND

TEXAN24 :: KRND-KRND

FLIGHT INFORMATION

Flight Status: Arrived
Operator: Unknown
More flights by this operator :: More flights under this callsign
Pilot: Indie I. (23345)
Aircraft: BEECH AIRCRAFT T-6A TEXAN
(TEX2)
More flights by this aircraft type
Origin: KRND Randolph AFB
United States
Destination: KRND Randolph AFB
United States
More flights between these airports :: More routes between these airports
Route: +TWEE6 RATLR
File this flight plan on PilotEdge
Remarks:
Altitude:
(Current/Filed)
11,000ft
Speed:
(Current/Filed)
0kts
Departed: 20-Aug-20 11:17 AM
Arrived: 20-Aug-20 11:59 AM
Distance/Time
Traveled:
1nm/0:42
Distance/Time
To Go:
Arrived

Flight Plot

Page will automatically refresh every two minutes.

Flight plan parsing failed; only flown route is shown


Map Options




Map Legend


Flown Route
Filed Route
Departure Airport
Arrival Airport
Navaid (VOR, NDB)
Fix

Horizontal Profiles

Position Reports

Time Latitude Longitude Heading Altitude Ground
Speed
20-Aug-20 11:12 29.515548 -98.279487 188 765ft 0kts
20-Aug-20 11:13 29.515546 -98.279487 188 765ft 0kts
20-Aug-20 11:14 29.515544 -98.279488 188 765ft 0kts
20-Aug-20 11:15 29.515518 -98.279497 205 765ft 4kts
20-Aug-20 11:16 29.520147 -98.283304 329 765ft 96kts
20-Aug-20 11:17 29.542671 -98.317774 237 2836ft 211kts
20-Aug-20 11:18 29.495314 -98.311776 141 2902ft 227kts
20-Aug-20 11:19 29.448340 -98.265417 148 4377ft 219kts
20-Aug-20 11:20 29.395888 -98.246019 165 8517ft 193kts
20-Aug-20 11:21 29.342650 -98.233993 163 11159ft 210kts
20-Aug-20 11:22 29.280223 -98.211064 164 11161ft 248kts
20-Aug-20 11:23 29.222065 -98.222626 246 11469ft 249kts
20-Aug-20 11:24 29.247243 -98.297709 307 11273ft 258kts
20-Aug-20 11:25 29.302951 -98.351033 321 11382ft 254kts
20-Aug-20 11:26 29.336510 -98.425003 290 11082ft 269kts
20-Aug-20 11:27 29.371876 -98.499462 300 11159ft 275kts
20-Aug-20 11:28 29.409936 -98.574087 298 10926ft 268kts
20-Aug-20 11:29 29.440171 -98.649957 291 11073ft 262kts
20-Aug-20 11:30 29.465062 -98.727693 291 11355ft 254kts
20-Aug-20 11:31 29.502506 -98.798656 306 11294ft 257kts
20-Aug-20 11:32 29.515307 -98.867694 210 12195ft 246kts
20-Aug-20 11:33 29.486918 -98.868170 156 13868ft 225kts
20-Aug-20 11:34 29.462550 -98.849442 138 14411ft 234kts
20-Aug-20 11:35 29.452491 -98.775747 68 14954ft 249kts
20-Aug-20 11:36 29.508765 -98.787288 271 13840ft 285kts
20-Aug-20 11:37 29.530692 -98.796233 106 14312ft 253kts
20-Aug-20 11:38 29.516839 -98.777254 148 14386ft 255kts
20-Aug-20 11:39 29.453360 -98.772039 178 14011ft 283kts
20-Aug-20 11:40 29.393758 -98.824329 231 14121ft 269kts
20-Aug-20 11:41 29.376909 -98.900391 310 12547ft 261kts
20-Aug-20 11:42 29.439858 -98.934902 341 9679ft 249kts
20-Aug-20 11:43 29.501360 -98.940843 44 7408ft 231kts
20-Aug-20 11:44 29.527177 -98.876400 65 5377ft 218kts
20-Aug-20 11:45 29.550592 -98.813014 68 3953ft 221kts
20-Aug-20 11:46 29.568591 -98.744808 72 3913ft 227kts
20-Aug-20 11:47 29.583660 -98.690538 71 4068ft 265kts
20-Aug-20 11:48 29.583660 -98.690538 71 4068ft 265kts
20-Aug-20 11:49 29.583660 -98.690538 71 4068ft 265kts
20-Aug-20 11:50 29.515369 -98.279183 71 4069ft 258kts
20-Aug-20 11:51 29.515369 -98.279183 71 4069ft 258kts
20-Aug-20 11:52 29.515369 -98.279183 71 4069ft 258kts
20-Aug-20 11:53 29.519469 -98.263767 70 4276ft 248kts
20-Aug-20 11:58 29.534625 -98.292989 150 765ft 0kts
20-Aug-20 11:59 29.534625 -98.292989 150 765ft 0kts
20-Aug-20 12:00 29.534625 -98.292989 150 765ft 0kts
20-Aug-20 12:01 29.515656 -98.278525 334 766ft 0kts
20-Aug-20 12:02 29.515656 -98.278525 334 766ft 0kts
20-Aug-20 12:03 29.515656 -98.278525 334 766ft 0kts
20-Aug-20 12:04 29.515656 -98.278525 334 766ft 0kts
20-Aug-20 12:05 29.515656 -98.278525 334 766ft 0kts
20-Aug-20 12:06 29.515656 -98.278525 334 766ft 0kts
20-Aug-20 12:07 29.515656 -98.278525 334 766ft 0kts
20-Aug-20 12:08 29.515656 -98.278525 334 766ft 0kts
20-Aug-20 12:09 29.515656 -98.278525 334 766ft 0kts
20-Aug-20 12:10 29.515656 -98.278525 334 766ft 0kts
20-Aug-20 12:11 29.515656 -98.278525 334 766ft 0kts
20-Aug-20 12:12 29.515656 -98.278525 334 766ft 0kts

Navigation Log

Ident Type
Flight plan parsing failed, navigation log unavailable